sensor_id;sensor_type;location;lat;lon;timestamp;P1;durP1;ratioP1;P2;durP2;ratioP2
59856;SDS011;45733;52.668;6.860;2023-09-19T00:00:33;1.75;;;1.65;;
59856;SDS011;45733;52.668;6.860;2023-09-19T00:03:00;1.92;;;1.83;;
59856;SDS011;45733;52.668;6.860;2023-09-19T00:05:27;1.95;;;1.85;;
59856;SDS011;45733;52.668;6.860;2023-09-19T00:07:54;1.95;;;1.85;;
59856;SDS011;45733;52.668;6.860;2023-09-19T00:10:24;2.10;;;2.00;;
59856;SDS011;45733;52.668;6.860;2023-09-19T00:12:54;1.90;;;1.80;;
59856;SDS011;45733;52.668;6.860;2023-09-19T00:15:20;2.15;;;2.05;;
59856;SDS011;45733;52.668;6.860;2023-09-19T00:17:47;2.20;;;2.10;;
59856;SDS011;45733;52.668;6.860;2023-09-19T00:20:13;1.95;;;1.85;;
59856;SDS011;45733;52.668;6.860;2023-09-19T00:22:42;1.95;;;1.85;;
59856;SDS011;45733;52.668;6.860;2023-09-19T00:25:08;1.75;;;1.65;;
59856;SDS011;45733;52.668;6.860;2023-09-19T00:27:35;1.85;;;1.75;;
59856;SDS011;45733;52.668;6.860;2023-09-19T00:30:06;1.80;;;1.70;;
59856;SDS011;45733;52.668;6.860;2023-09-19T00:32:40;1.83;;;1.73;;
59856;SDS011;45733;52.668;6.860;2023-09-19T00:35:06;1.73;;;1.63;;
59856;SDS011;45733;52.668;6.860;2023-09-19T00:37:35;1.65;;;1.55;;
59856;SDS011;45733;52.668;6.860;2023-09-19T00:40:03;1.75;;;1.65;;
59856;SDS011;45733;52.668;6.860;2023-09-19T00:42:31;1.65;;;1.55;;
59856;SDS011;45733;52.668;6.860;2023-09-19T00:44:56;1.75;;;1.65;;
59856;SDS011;45733;52.668;6.860;2023-09-19T00:47:22;1.75;;;1.65;;
59856;SDS011;45733;52.668;6.860;2023-09-19T00:49:48;1.75;;;1.65;;
59856;SDS011;45733;52.668;6.860;2023-09-19T00:52:17;1.75;;;1.65;;
59856;SDS011;45733;52.668;6.860;2023-09-19T00:54:47;1.65;;;1.55;;
59856;SDS011;45733;52.668;6.860;2023-09-19T00:57:13;1.60;;;1.50;;
59856;SDS011;45733;52.668;6.860;2023-09-19T00:59:44;1.35;;;1.30;;
59856;SDS011;45733;52.668;6.860;2023-09-19T01:02:10;1.70;;;1.60;;
59856;SDS011;45733;52.668;6.860;2023-09-19T01:04:42;1.70;;;1.60;;
59856;SDS011;45733;52.668;6.860;2023-09-19T01:07:09;1.48;;;1.40;;
59856;SDS011;45733;52.668;6.860;2023-09-19T01:09:35;1.63;;;1.52;;
59856;SDS011;45733;52.668;6.860;2023-09-19T01:12:01;1.52;;;1.45;;
59856;SDS011;45733;52.668;6.860;2023-09-19T01:25:42;1.75;;;1.65;;
59856;SDS011;45733;52.668;6.860;2023-09-19T01:28:30;1.88;;;1.77;;
59856;SDS011;45733;52.668;6.860;2023-09-19T01:31:19;1.85;;;1.75;;
59856;SDS011;45733;52.668;6.860;2023-09-19T01:33:55;1.75;;;1.65;;
59856;SDS011;45733;52.668;6.860;2023-09-19T01:36:25;1.65;;;1.55;;
59856;SDS011;45733;52.668;6.860;2023-09-19T01:38:54;1.65;;;1.55;;
59856;SDS011;45733;52.668;6.860;2023-09-19T01:41:24;1.60;;;1.50;;
59856;SDS011;45733;52.668;6.860;2023-09-19T01:43:58;1.58;;;1.48;;
59856;SDS011;45733;52.668;6.860;2023-09-19T01:46:39;1.23;;;1.23;;
59856;SDS011;45733;52.668;6.860;2023-09-19T01:54:24;1.70;;;1.60;;
59856;SDS011;45733;52.668;6.860;2023-09-19T01:59:47;1.70;;;1.60;;
59856;SDS011;45733;52.668;6.860;2023-09-19T02:02:17;1.75;;;1.65;;
59856;SDS011;45733;52.668;6.860;2023-09-19T02:04:47;1.65;;;1.55;;
59856;SDS011;45733;52.668;6.860;2023-09-19T02:07:14;1.75;;;1.65;;
59856;SDS011;45733;52.668;6.860;2023-09-19T02:09:40;1.77;;;1.67;;
59856;SDS011;45733;52.668;6.860;2023-09-19T02:12:08;1.67;;;1.58;;
59856;SDS011;45733;52.668;6.860;2023-09-19T02:14:34;1.65;;;1.55;;
59856;SDS011;45733;52.668;6.860;2023-09-19T02:17:01;1.63;;;1.52;;
59856;SDS011;45733;52.668;6.860;2023-09-19T02:19:32;1.65;;;1.55;;
59856;SDS011;45733;52.668;6.860;2023-09-19T02:21:59;1.50;;;1.42;;
59856;SDS011;45733;52.668;6.860;2023-09-19T02:24:25;1.75;;;1.65;;
59856;SDS011;45733;52.668;6.860;2023-09-19T02:26:52;1.75;;;1.65;;
59856;SDS011;45733;52.668;6.860;2023-09-19T02:29:17;1.63;;;1.52;;
59856;SDS011;45733;52.668;6.860;2023-09-19T02:31:43;1.73;;;1.63;;
59856;SDS011;45733;52.668;6.860;2023-09-19T02:34:11;1.67;;;1.58;;
59856;SDS011;45733;52.668;6.860;2023-09-19T02:36:37;1.05;;;1.05;;
59856;SDS011;45733;52.668;6.860;2023-09-19T02:39:03;1.55;;;1.45;;
59856;SDS011;45733;52.668;6.860;2023-09-19T02:41:33;1.45;;;1.38;;
59856;SDS011;45733;52.668;6.860;2023-09-19T02:43:59;1.50;;;1.40;;
59856;SDS011;45733;52.668;6.860;2023-09-19T02:46:24;1.60;;;1.50;;
59856;SDS011;45733;52.668;6.860;2023-09-19T02:48:50;1.42;;;1.38;;
59856;SDS011;45733;52.668;6.860;2023-09-19T02:51:16;1.60;;;1.50;;
59856;SDS011;45733;52.668;6.860;2023-09-19T02:53:41;1.50;;;1.40;;
59856;SDS011;45733;52.668;6.860;2023-09-19T02:56:07;1.00;;;1.00;;
59856;SDS011;45733;52.668;6.860;2023-09-19T02:58:34;1.23;;;1.23;;
59856;SDS011;45733;52.668;6.860;2023-09-19T03:01:07;1.08;;;1.08;;
59856;SDS011;45733;52.668;6.860;2023-09-19T03:03:33;1.35;;;1.35;;
59856;SDS011;45733;52.668;6.860;2023-09-19T03:05:59;1.20;;;1.20;;
59856;SDS011;45733;52.668;6.860;2023-09-19T03:08:29;1.00;;;1.00;;
59856;SDS011;45733;52.668;6.860;2023-09-19T03:10:54;1.10;;;1.10;;
59856;SDS011;45733;52.668;6.860;2023-09-19T03:13:20;1.10;;;1.10;;
59856;SDS011;45733;52.668;6.860;2023-09-19T03:15:49;0.90;;;0.90;;
59856;SDS011;45733;52.668;6.860;2023-09-19T03:18:15;0.95;;;0.95;;
59856;SDS011;45733;52.668;6.860;2023-09-19T03:20:41;1.00;;;1.00;;
59856;SDS011;45733;52.668;6.860;2023-09-19T03:23:07;0.90;;;0.90;;
59856;SDS011;45733;52.668;6.860;2023-09-19T03:25:34;1.02;;;1.02;;
59856;SDS011;45733;52.668;6.860;2023-09-19T03:28:01;0.90;;;0.90;;
59856;SDS011;45733;52.668;6.860;2023-09-19T03:30:30;0.90;;;0.90;;
59856;SDS011;45733;52.668;6.860;2023-09-19T03:32:57;0.95;;;0.95;;
59856;SDS011;45733;52.668;6.860;2023-09-19T03:35:23;0.88;;;0.88;;
59856;SDS011;45733;52.668;6.860;2023-09-19T03:37:49;0.88;;;0.88;;
59856;SDS011;45733;52.668;6.860;2023-09-19T03:40:14;0.80;;;0.80;;
59856;SDS011;45733;52.668;6.860;2023-09-19T03:42:41;0.85;;;0.85;;
59856;SDS011;45733;52.668;6.860;2023-09-19T03:45:10;0.73;;;0.73;;
59856;SDS011;45733;52.668;6.860;2023-09-19T03:50:12;0.82;;;0.82;;
59856;SDS011;45733;52.668;6.860;2023-09-19T03:52:40;0.65;;;0.65;;
59856;SDS011;45733;52.668;6.860;2023-09-19T03:55:06;0.75;;;0.75;;
59856;SDS011;45733;52.668;6.860;2023-09-19T03:57:32;0.73;;;0.73;;
59856;SDS011;45733;52.668;6.860;2023-09-19T03:59:57;0.80;;;0.80;;
59856;SDS011;45733;52.668;6.860;2023-09-19T04:02:23;0.90;;;0.90;;
59856;SDS011;45733;52.668;6.860;2023-09-19T04:04:53;0.90;;;0.90;;
59856;SDS011;45733;52.668;6.860;2023-09-19T04:07:18;0.88;;;0.88;;
59856;SDS011;45733;52.668;6.860;2023-09-19T04:09:47;0.88;;;0.88;;
59856;SDS011;45733;52.668;6.860;2023-09-19T04:12:14;0.95;;;0.95;;
59856;SDS011;45733;52.668;6.860;2023-09-19T04:14:42;0.98;;;0.98;;
59856;SDS011;45733;52.668;6.860;2023-09-19T04:17:11;0.88;;;0.88;;
59856;SDS011;45733;52.668;6.860;2023-09-19T04:19:36;1.00;;;1.00;;
59856;SDS011;45733;52.668;6.860;2023-09-19T04:22:06;1.05;;;1.05;;
59856;SDS011;45733;52.668;6.860;2023-09-19T04:24:32;1.20;;;1.20;;
59856;SDS011;45733;52.668;6.860;2023-09-19T04:26:59;1.10;;;1.10;;
59856;SDS011;45733;52.668;6.860;2023-09-19T04:29:27;1.10;;;1.10;;
59856;SDS011;45733;52.668;6.860;2023-09-19T04:31:54;1.10;;;1.10;;
59856;SDS011;45733;52.668;6.860;2023-09-19T04:34:20;1.10;;;1.10;;
59856;SDS011;45733;52.668;6.860;2023-09-19T04:36:45;0.90;;;0.90;;
59856;SDS011;45733;52.668;6.860;2023-09-19T04:39:12;1.00;;;1.00;;
59856;SDS011;45733;52.668;6.860;2023-09-19T04:41:38;1.00;;;1.00;;
59856;SDS011;45733;52.668;6.860;2023-09-19T04:44:06;0.90;;;0.90;;
59856;SDS011;45733;52.668;6.860;2023-09-19T04:46:37;1.02;;;1.02;;
59856;SDS011;45733;52.668;6.860;2023-09-19T04:49:02;1.00;;;1.00;;
59856;SDS011;45733;52.668;6.860;2023-09-19T04:51:28;0.90;;;0.90;;
59856;SDS011;45733;52.668;6.860;2023-09-19T04:53:59;0.82;;;0.82;;
59856;SDS011;45733;52.668;6.860;2023-09-19T04:56:25;0.80;;;0.80;;
59856;SDS011;45733;52.668;6.860;2023-09-19T04:58:53;0.80;;;0.80;;
59856;SDS011;45733;52.668;6.860;2023-09-19T05:01:28;0.85;;;0.85;;
59856;SDS011;45733;52.668;6.860;2023-09-19T05:03:54;0.80;;;0.80;;
59856;SDS011;45733;52.668;6.860;2023-09-19T05:06:20;0.77;;;0.77;;
59856;SDS011;45733;52.668;6.860;2023-09-19T05:08:51;0.70;;;0.70;;
59856;SDS011;45733;52.668;6.860;2023-09-19T05:11:20;0.70;;;0.70;;
59856;SDS011;45733;52.668;6.860;2023-09-19T05:13:47;0.70;;;0.70;;
59856;SDS011;45733;52.668;6.860;2023-09-19T05:16:21;0.70;;;0.70;;
59856;SDS011;45733;52.668;6.860;2023-09-19T05:18:49;0.70;;;0.70;;
59856;SDS011;45733;52.668;6.860;2023-09-19T05:21:14;0.70;;;0.70;;
59856;SDS011;45733;52.668;6.860;2023-09-19T05:23:40;0.70;;;0.70;;
59856;SDS011;45733;52.668;6.860;2023-09-19T05:26:07;0.60;;;0.60;;
59856;SDS011;45733;52.668;6.860;2023-09-19T05:28:33;0.63;;;0.63;;
59856;SDS011;45733;52.668;6.860;2023-09-19T05:31:00;0.70;;;0.70;;
59856;SDS011;45733;52.668;6.860;2023-09-19T05:33:27;0.60;;;0.60;;
59856;SDS011;45733;52.668;6.860;2023-09-19T05:35:53;0.63;;;0.63;;
59856;SDS011;45733;52.668;6.860;2023-09-19T05:38:19;0.60;;;0.60;;
59856;SDS011;45733;52.668;6.860;2023-09-19T05:40:45;0.70;;;0.70;;
59856;SDS011;45733;52.668;6.860;2023-09-19T05:43:11;0.63;;;0.63;;
59856;SDS011;45733;52.668;6.860;2023-09-19T05:45:37;0.70;;;0.70;;
59856;SDS011;45733;52.668;6.860;2023-09-19T05:48:10;0.65;;;0.65;;
59856;SDS011;45733;52.668;6.860;2023-09-19T05:50:38;0.70;;;0.70;;
59856;SDS011;45733;52.668;6.860;2023-09-19T05:53:07;0.60;;;0.60;;
59856;SDS011;45733;52.668;6.860;2023-09-19T05:55:43;0.60;;;0.60;;
59856;SDS011;45733;52.668;6.860;2023-09-19T05:58:08;0.70;;;0.70;;
59856;SDS011;45733;52.668;6.860;2023-09-19T06:00:35;0.60;;;0.60;;
59856;SDS011;45733;52.668;6.860;2023-09-19T06:03:04;0.65;;;0.65;;
59856;SDS011;45733;52.668;6.860;2023-09-19T06:05:32;0.65;;;0.65;;
59856;SDS011;45733;52.668;6.860;2023-09-19T06:08:01;0.63;;;0.63;;
59856;SDS011;45733;52.668;6.860;2023-09-19T06:10:45;0.70;;;0.70;;
59856;SDS011;45733;52.668;6.860;2023-09-19T06:13:18;0.70;;;0.70;;
59856;SDS011;45733;52.668;6.860;2023-09-19T06:15:45;0.70;;;0.70;;
59856;SDS011;45733;52.668;6.860;2023-09-19T06:18:12;0.70;;;0.70;;
59856;SDS011;45733;52.668;6.860;2023-09-19T06:20:44;0.73;;;0.73;;
59856;SDS011;45733;52.668;6.860;2023-09-19T06:23:16;0.70;;;0.70;;
59856;SDS011;45733;52.668;6.860;2023-09-19T06:25:42;0.80;;;0.80;;
59856;SDS011;45733;52.668;6.860;2023-09-19T06:28:08;0.80;;;0.80;;
59856;SDS011;45733;52.668;6.860;2023-09-19T06:30:38;0.70;;;0.70;;
59856;SDS011;45733;52.668;6.860;2023-09-19T06:33:09;0.70;;;0.70;;
59856;SDS011;45733;52.668;6.860;2023-09-19T06:35:36;0.70;;;0.70;;
59856;SDS011;45733;52.668;6.860;2023-09-19T06:38:02;0.80;;;0.80;;
59856;SDS011;45733;52.668;6.860;2023-09-19T06:40:29;0.70;;;0.70;;
59856;SDS011;45733;52.668;6.860;2023-09-19T06:42:56;0.70;;;0.70;;
59856;SDS011;45733;52.668;6.860;2023-09-19T06:45:22;0.70;;;0.70;;
59856;SDS011;45733;52.668;6.860;2023-09-19T06:47:51;0.70;;;0.70;;
59856;SDS011;45733;52.668;6.860;2023-09-19T06:50:20;0.70;;;0.70;;
59856;SDS011;45733;52.668;6.860;2023-09-19T06:52:50;0.70;;;0.70;;
59856;SDS011;45733;52.668;6.860;2023-09-19T06:55:19;0.65;;;0.65;;
59856;SDS011;45733;52.668;6.860;2023-09-19T06:57:48;0.70;;;0.70;;
59856;SDS011;45733;52.668;6.860;2023-09-19T07:00:14;0.70;;;0.70;;
59856;SDS011;45733;52.668;6.860;2023-09-19T07:03:02;0.63;;;0.63;;
59856;SDS011;45733;52.668;6.860;2023-09-19T07:05:33;0.70;;;0.70;;
59856;SDS011;45733;52.668;6.860;2023-09-19T07:08:04;0.70;;;0.70;;
59856;SDS011;45733;52.668;6.860;2023-09-19T07:10:33;0.73;;;0.73;;
59856;SDS011;45733;52.668;6.860;2023-09-19T07:12:59;0.70;;;0.70;;
59856;SDS011;45733;52.668;6.860;2023-09-19T07:15:26;0.70;;;0.70;;
59856;SDS011;45733;52.668;6.860;2023-09-19T07:17:53;0.70;;;0.70;;
59856;SDS011;45733;52.668;6.860;2023-09-19T07:20:21;0.70;;;0.70;;
59856;SDS011;45733;52.668;6.860;2023-09-19T07:22:50;0.70;;;0.70;;
59856;SDS011;45733;52.668;6.860;2023-09-19T07:25:16;0.70;;;0.70;;
59856;SDS011;45733;52.668;6.860;2023-09-19T07:27:42;0.70;;;0.70;;
59856;SDS011;45733;52.668;6.860;2023-09-19T07:30:08;0.70;;;0.70;;
59856;SDS011;45733;52.668;6.860;2023-09-19T07:32:35;0.70;;;0.70;;
59856;SDS011;45733;52.668;6.860;2023-09-19T07:35:03;0.68;;;0.68;;
59856;SDS011;45733;52.668;6.860;2023-09-19T07:37:31;0.70;;;0.70;;
59856;SDS011;45733;52.668;6.860;2023-09-19T07:40:02;0.80;;;0.80;;
59856;SDS011;45733;52.668;6.860;2023-09-19T07:42:38;0.80;;;0.80;;
59856;SDS011;45733;52.668;6.860;2023-09-19T07:45:06;0.90;;;0.90;;
59856;SDS011;45733;52.668;6.860;2023-09-19T07:47:34;0.95;;;0.95;;
59856;SDS011;45733;52.668;6.860;2023-09-19T07:50:07;1.10;;;1.10;;
59856;SDS011;45733;52.668;6.860;2023-09-19T07:52:33;1.20;;;1.20;;
59856;SDS011;45733;52.668;6.860;2023-09-19T07:54:59;1.10;;;1.10;;
59856;SDS011;45733;52.668;6.860;2023-09-19T07:57:37;1.17;;;1.17;;
59856;SDS011;45733;52.668;6.860;2023-09-19T08:00:03;1.20;;;1.20;;
59856;SDS011;45733;52.668;6.860;2023-09-19T08:02:41;1.58;;;1.48;;
59856;SDS011;45733;52.668;6.860;2023-09-19T08:05:26;1.63;;;1.52;;
59856;SDS011;45733;52.668;6.860;2023-09-19T08:07:52;1.55;;;1.45;;
59856;SDS011;45733;52.668;6.860;2023-09-19T08:10:19;1.58;;;1.48;;
59856;SDS011;45733;52.668;6.860;2023-09-19T08:12:46;1.55;;;1.45;;
59856;SDS011;45733;52.668;6.860;2023-09-19T08:15:21;1.33;;;1.33;;
59856;SDS011;45733;52.668;6.860;2023-09-19T08:17:47;1.65;;;1.55;;
59856;SDS011;45733;52.668;6.860;2023-09-19T08:20:13;1.38;;;1.35;;
59856;SDS011;45733;52.668;6.860;2023-09-19T08:22:47;1.60;;;1.50;;
59856;SDS011;45733;52.668;6.860;2023-09-19T08:25:14;1.27;;;1.27;;
59856;SDS011;45733;52.668;6.860;2023-09-19T08:27:47;1.13;;;1.13;;
59856;SDS011;45733;52.668;6.860;2023-09-19T08:30:15;1.15;;;1.15;;
59856;SDS011;45733;52.668;6.860;2023-09-19T08:32:43;1.08;;;1.08;;
59856;SDS011;45733;52.668;6.860;2023-09-19T08:35:12;1.05;;;1.05;;
59856;SDS011;45733;52.668;6.860;2023-09-19T08:37:44;1.20;;;1.20;;
59856;SDS011;45733;52.668;6.860;2023-09-19T08:40:11;1.15;;;1.15;;
59856;SDS011;45733;52.668;6.860;2023-09-19T08:45:15;1.15;;;1.15;;
59856;SDS011;45733;52.668;6.860;2023-09-19T08:47:44;1.00;;;1.00;;
59856;SDS011;45733;52.668;6.860;2023-09-19T08:55:20;1.00;;;1.00;;
59856;SDS011;45733;52.668;6.860;2023-09-19T08:57:51;0.90;;;0.90;;
59856;SDS011;45733;52.668;6.860;2023-09-19T09:00:24;0.95;;;0.95;;
59856;SDS011;45733;52.668;6.860;2023-09-19T09:02:52;0.93;;;0.93;;
59856;SDS011;45733;52.668;6.860;2023-09-19T09:05:20;0.90;;;0.90;;
59856;SDS011;45733;52.668;6.860;2023-09-19T09:07:52;0.82;;;0.82;;
59856;SDS011;45733;52.668;6.860;2023-09-19T09:10:21;0.90;;;0.90;;
59856;SDS011;45733;52.668;6.860;2023-09-19T09:12:51;0.80;;;0.80;;
59856;SDS011;45733;52.668;6.860;2023-09-19T09:15:19;0.90;;;0.90;;
59856;SDS011;45733;52.668;6.860;2023-09-19T09:17:48;0.90;;;0.90;;
59856;SDS011;45733;52.668;6.860;2023-09-19T09:20:20;0.80;;;0.80;;
59856;SDS011;45733;52.668;6.860;2023-09-19T09:25:19;0.80;;;0.80;;
59856;SDS011;45733;52.668;6.860;2023-09-19T09:28:03;1.00;;;1.00;;
59856;SDS011;45733;52.668;6.860;2023-09-19T09:33:09;0.90;;;0.90;;
59856;SDS011;45733;52.668;6.860;2023-09-19T09:35:48;0.93;;;0.93;;
59856;SDS011;45733;52.668;6.860;2023-09-19T09:38:20;0.98;;;0.98;;
59856;SDS011;45733;52.668;6.860;2023-09-19T09:40:52;1.00;;;1.00;;
59856;SDS011;45733;52.668;6.860;2023-09-19T09:43:38;1.10;;;1.10;;
59856;SDS011;45733;52.668;6.860;2023-09-19T09:46:15;1.13;;;1.13;;
59856;SDS011;45733;52.668;6.860;2023-09-19T09:51:41;1.00;;;1.00;;
59856;SDS011;45733;52.668;6.860;2023-09-19T09:54:14;0.85;;;0.85;;
59856;SDS011;45733;52.668;6.860;2023-09-19T09:56:55;0.90;;;0.90;;
59856;SDS011;45733;52.668;6.860;2023-09-19T10:02:11;0.80;;;0.80;;
59856;SDS011;45733;52.668;6.860;2023-09-19T10:04:50;0.85;;;0.85;;
59856;SDS011;45733;52.668;6.860;2023-09-19T10:07:35;0.80;;;0.80;;
59856;SDS011;45733;52.668;6.860;2023-09-19T10:12:46;0.88;;;0.88;;
59856;SDS011;45733;52.668;6.860;2023-09-19T10:15:14;0.90;;;0.90;;
59856;SDS011;45733;52.668;6.860;2023-09-19T10:17:42;0.85;;;0.85;;
59856;SDS011;45733;52.668;6.860;2023-09-19T10:20:10;0.80;;;0.80;;
59856;SDS011;45733;52.668;6.860;2023-09-19T10:22:49;0.77;;;0.77;;
59856;SDS011;45733;52.668;6.860;2023-09-19T10:25:26;0.60;;;0.60;;
59856;SDS011;45733;52.668;6.860;2023-09-19T10:27:56;0.80;;;0.80;;
59856;SDS011;45733;52.668;6.860;2023-09-19T10:30:28;0.70;;;0.70;;
59856;SDS011;45733;52.668;6.860;2023-09-19T10:33:03;0.80;;;0.80;;
59856;SDS011;45733;52.668;6.860;2023-09-19T10:35:30;0.70;;;0.70;;
59856;SDS011;45733;52.668;6.860;2023-09-19T10:37:59;0.70;;;0.70;;
59856;SDS011;45733;52.668;6.860;2023-09-19T10:40:28;0.70;;;0.70;;
59856;SDS011;45733;52.668;6.860;2023-09-19T10:43:02;0.60;;;0.60;;
59856;SDS011;45733;52.668;6.860;2023-09-19T10:45:41;0.60;;;0.60;;
59856;SDS011;45733;52.668;6.860;2023-09-19T10:48:23;0.70;;;0.70;;
59856;SDS011;45733;52.668;6.860;2023-09-19T10:50:57;0.75;;;0.75;;
59856;SDS011;45733;52.668;6.860;2023-09-19T10:56:36;0.70;;;0.70;;
59856;SDS011;45733;52.668;6.860;2023-09-19T10:59:10;0.70;;;0.70;;
59856;SDS011;45733;52.668;6.860;2023-09-19T11:01:54;0.60;;;0.60;;
59856;SDS011;45733;52.668;6.860;2023-09-19T11:04:33;0.60;;;0.60;;
59856;SDS011;45733;52.668;6.860;2023-09-19T11:07:05;0.60;;;0.60;;
59856;SDS011;45733;52.668;6.860;2023-09-19T11:09:49;0.70;;;0.70;;
59856;SDS011;45733;52.668;6.860;2023-09-19T11:15:06;0.70;;;0.70;;
59856;SDS011;45733;52.668;6.860;2023-09-19T11:17:36;0.70;;;0.70;;
59856;SDS011;45733;52.668;6.860;2023-09-19T11:30:31;0.70;;;0.70;;
59856;SDS011;45733;52.668;6.860;2023-09-19T11:36:08;0.80;;;0.80;;
59856;SDS011;45733;52.668;6.860;2023-09-19T11:41:37;0.70;;;0.70;;
59856;SDS011;45733;52.668;6.860;2023-09-19T11:49:17;0.63;;;0.63;;
59856;SDS011;45733;52.668;6.860;2023-09-19T11:52:04;0.60;;;0.60;;
59856;SDS011;45733;52.668;6.860;2023-09-19T11:54:30;0.70;;;0.70;;
59856;SDS011;45733;52.668;6.860;2023-09-19T11:56:57;0.70;;;0.70;;
59856;SDS011;45733;52.668;6.860;2023-09-19T11:59:25;0.70;;;0.70;;
59856;SDS011;45733;52.668;6.860;2023-09-19T12:01:55;0.70;;;0.70;;
59856;SDS011;45733;52.668;6.860;2023-09-19T12:04:43;0.70;;;0.70;;
59856;SDS011;45733;52.668;6.860;2023-09-19T12:07:15;0.70;;;0.70;;
59856;SDS011;45733;52.668;6.860;2023-09-19T12:09:45;0.60;;;0.60;;
59856;SDS011;45733;52.668;6.860;2023-09-19T12:12:23;0.70;;;0.70;;
59856;SDS011;45733;52.668;6.860;2023-09-19T12:14:52;0.70;;;0.70;;
59856;SDS011;45733;52.668;6.860;2023-09-19T12:17:19;0.70;;;0.70;;
59856;SDS011;45733;52.668;6.860;2023-09-19T12:19:51;0.70;;;0.70;;
59856;SDS011;45733;52.668;6.860;2023-09-19T12:22:18;0.70;;;0.70;;
59856;SDS011;45733;52.668;6.860;2023-09-19T12:24:48;0.80;;;0.80;;
59856;SDS011;45733;52.668;6.860;2023-09-19T12:29:46;0.80;;;0.80;;
59856;SDS011;45733;52.668;6.860;2023-09-19T12:32:19;0.70;;;0.70;;
59856;SDS011;45733;52.668;6.860;2023-09-19T12:35:06;0.70;;;0.70;;
59856;SDS011;45733;52.668;6.860;2023-09-19T12:37:36;0.60;;;0.60;;
59856;SDS011;45733;52.668;6.860;2023-09-19T12:40:08;0.60;;;0.60;;
59856;SDS011;45733;52.668;6.860;2023-09-19T12:42:47;0.50;;;0.50;;
59856;SDS011;45733;52.668;6.860;2023-09-19T12:45:14;0.60;;;0.60;;
59856;SDS011;45733;52.668;6.860;2023-09-19T12:51:02;0.60;;;0.60;;
59856;SDS011;45733;52.668;6.860;2023-09-19T12:53:33;0.70;;;0.70;;
59856;SDS011;45733;52.668;6.860;2023-09-19T12:56:03;0.70;;;0.70;;
59856;SDS011;45733;52.668;6.860;2023-09-19T12:58:33;0.70;;;0.70;;
59856;SDS011;45733;52.668;6.860;2023-09-19T13:01:00;0.80;;;0.80;;
59856;SDS011;45733;52.668;6.860;2023-09-19T13:03:30;0.80;;;0.80;;
59856;SDS011;45733;52.668;6.860;2023-09-19T13:06:02;0.82;;;0.82;;
59856;SDS011;45733;52.668;6.860;2023-09-19T13:16:09;0.90;;;0.90;;
59856;SDS011;45733;52.668;6.860;2023-09-19T13:18:46;0.80;;;0.80;;
59856;SDS011;45733;52.668;6.860;2023-09-19T13:21:15;0.80;;;0.80;;
59856;SDS011;45733;52.668;6.860;2023-09-19T13:23:52;0.80;;;0.80;;
59856;SDS011;45733;52.668;6.860;2023-09-19T13:26:27;0.80;;;0.80;;
59856;SDS011;45733;52.668;6.860;2023-09-19T13:28:56;0.70;;;0.70;;
59856;SDS011;45733;52.668;6.860;2023-09-19T13:31:22;0.60;;;0.60;;
59856;SDS011;45733;52.668;6.860;2023-09-19T13:33:51;0.73;;;0.73;;
59856;SDS011;45733;52.668;6.860;2023-09-19T13:36:17;0.63;;;0.63;;
59856;SDS011;45733;52.668;6.860;2023-09-19T13:38:45;0.75;;;0.75;;
59856;SDS011;45733;52.668;6.860;2023-09-19T13:41:13;0.70;;;0.70;;
59856;SDS011;45733;52.668;6.860;2023-09-19T13:43:39;0.80;;;0.80;;
59856;SDS011;45733;52.668;6.860;2023-09-19T13:46:05;0.70;;;0.70;;
59856;SDS011;45733;52.668;6.860;2023-09-19T13:48:35;0.70;;;0.70;;
59856;SDS011;45733;52.668;6.860;2023-09-19T13:51:02;0.60;;;0.60;;
59856;SDS011;45733;52.668;6.860;2023-09-19T13:53:29;0.57;;;0.57;;
59856;SDS011;45733;52.668;6.860;2023-09-19T13:55:54;0.60;;;0.60;;
59856;SDS011;45733;52.668;6.860;2023-09-19T13:58:20;0.60;;;0.60;;
59856;SDS011;45733;52.668;6.860;2023-09-19T14:00:50;0.60;;;0.60;;
59856;SDS011;45733;52.668;6.860;2023-09-19T14:03:20;0.60;;;0.60;;
59856;SDS011;45733;52.668;6.860;2023-09-19T14:05:46;0.60;;;0.60;;
59856;SDS011;45733;52.668;6.860;2023-09-19T14:08:14;0.50;;;0.50;;
59856;SDS011;45733;52.668;6.860;2023-09-19T14:10:42;0.50;;;0.50;;
59856;SDS011;45733;52.668;6.860;2023-09-19T14:13:11;0.60;;;0.60;;
59856;SDS011;45733;52.668;6.860;2023-09-19T14:15:38;0.50;;;0.50;;
59856;SDS011;45733;52.668;6.860;2023-09-19T14:18:04;0.60;;;0.60;;
59856;SDS011;45733;52.668;6.860;2023-09-19T14:20:30;0.55;;;0.55;;
59856;SDS011;45733;52.668;6.860;2023-09-19T14:23:00;0.50;;;0.50;;
59856;SDS011;45733;52.668;6.860;2023-09-19T14:25:26;0.60;;;0.60;;
59856;SDS011;45733;52.668;6.860;2023-09-19T14:28:00;0.50;;;0.50;;
59856;SDS011;45733;52.668;6.860;2023-09-19T14:30:25;0.50;;;0.50;;
59856;SDS011;45733;52.668;6.860;2023-09-19T14:32:52;0.60;;;0.60;;
59856;SDS011;45733;52.668;6.860;2023-09-19T14:35:21;0.60;;;0.60;;
59856;SDS011;45733;52.668;6.860;2023-09-19T14:37:48;0.60;;;0.60;;
59856;SDS011;45733;52.668;6.860;2023-09-19T14:40:16;0.60;;;0.60;;
59856;SDS011;45733;52.668;6.860;2023-09-19T14:42:43;0.60;;;0.60;;
59856;SDS011;45733;52.668;6.860;2023-09-19T14:45:16;0.60;;;0.60;;
59856;SDS011;45733;52.668;6.860;2023-09-19T14:47:43;0.60;;;0.60;;
59856;SDS011;45733;52.668;6.860;2023-09-19T14:50:11;0.50;;;0.50;;
59856;SDS011;45733;52.668;6.860;2023-09-19T14:52:37;0.50;;;0.50;;
59856;SDS011;45733;52.668;6.860;2023-09-19T14:55:05;0.60;;;0.60;;
59856;SDS011;45733;52.668;6.860;2023-09-19T14:57:39;0.60;;;0.60;;
59856;SDS011;45733;52.668;6.860;2023-09-19T15:00:06;0.60;;;0.60;;
59856;SDS011;45733;52.668;6.860;2023-09-19T15:02:36;0.60;;;0.60;;
59856;SDS011;45733;52.668;6.860;2023-09-19T15:05:04;0.60;;;0.60;;
59856;SDS011;45733;52.668;6.860;2023-09-19T15:07:31;0.60;;;0.60;;
59856;SDS011;45733;52.668;6.860;2023-09-19T15:09:57;0.60;;;0.60;;
59856;SDS011;45733;52.668;6.860;2023-09-19T15:12:23;0.70;;;0.70;;
59856;SDS011;45733;52.668;6.860;2023-09-19T15:14:48;0.60;;;0.60;;
59856;SDS011;45733;52.668;6.860;2023-09-19T15:17:14;0.70;;;0.70;;
59856;SDS011;45733;52.668;6.860;2023-09-19T15:19:40;0.60;;;0.60;;
59856;SDS011;45733;52.668;6.860;2023-09-19T15:22:06;0.60;;;0.60;;
59856;SDS011;45733;52.668;6.860;2023-09-19T15:24:32;0.60;;;0.60;;
59856;SDS011;45733;52.668;6.860;2023-09-19T15:27:00;0.60;;;0.60;;
59856;SDS011;45733;52.668;6.860;2023-09-19T15:29:26;0.60;;;0.60;;
59856;SDS011;45733;52.668;6.860;2023-09-19T15:31:54;0.70;;;0.70;;
59856;SDS011;45733;52.668;6.860;2023-09-19T15:34:27;0.60;;;0.60;;
59856;SDS011;45733;52.668;6.860;2023-09-19T15:36:54;0.60;;;0.60;;
59856;SDS011;45733;52.668;6.860;2023-09-19T15:39:19;0.70;;;0.70;;
59856;SDS011;45733;52.668;6.860;2023-09-19T15:41:47;0.70;;;0.70;;
59856;SDS011;45733;52.668;6.860;2023-09-19T15:44:19;0.63;;;0.63;;
59856;SDS011;45733;52.668;6.860;2023-09-19T15:46:45;0.70;;;0.70;;
59856;SDS011;45733;52.668;6.860;2023-09-19T15:49:11;0.60;;;0.60;;
59856;SDS011;45733;52.668;6.860;2023-09-19T15:51:37;0.60;;;0.60;;
59856;SDS011;45733;52.668;6.860;2023-09-19T15:54:08;0.60;;;0.60;;
59856;SDS011;45733;52.668;6.860;2023-09-19T15:56:35;0.60;;;0.60;;
59856;SDS011;45733;52.668;6.860;2023-09-19T15:59:02;0.60;;;0.60;;
59856;SDS011;45733;52.668;6.860;2023-09-19T16:01:28;0.60;;;0.60;;
59856;SDS011;45733;52.668;6.860;2023-09-19T16:03:54;0.70;;;0.70;;
59856;SDS011;45733;52.668;6.860;2023-09-19T16:06:25;0.60;;;0.60;;
59856;SDS011;45733;52.668;6.860;2023-09-19T16:08:53;0.60;;;0.60;;
59856;SDS011;45733;52.668;6.860;2023-09-19T16:11:21;0.60;;;0.60;;
59856;SDS011;45733;52.668;6.860;2023-09-19T16:13:50;0.60;;;0.60;;
59856;SDS011;45733;52.668;6.860;2023-09-19T16:16:17;0.60;;;0.60;;
59856;SDS011;45733;52.668;6.860;2023-09-19T16:21:18;0.60;;;0.60;;
59856;SDS011;45733;52.668;6.860;2023-09-19T16:23:48;0.60;;;0.60;;
59856;SDS011;45733;52.668;6.860;2023-09-19T16:26:15;0.60;;;0.60;;